CheckWX is a tool to help pilots better visualize weather data.  It is not intended as a substitute for an official pre-flight weather briefing.

04:01:49 UTC

KCGS METAR
College Park Airport
College Park, Maryland, USA
Current

18 mins ago

KCGS 250344Z AUTO 00000KT 10SM SCT110 14/08 A2990 RMK AO1 T01350084
Observed
Apr-25 @ 03:44 UTC
Visibility
10 SM
Flight Rules
VFR
Cloud Levels
  • Scattered at 11,000' AGL
Temperature
14°C / 57°F
Dewpoint
C / 46°F
Humidity
67%
Altimeter
29.9" Hg
Pressure
1012.52 hPa
Previous

38 mins ago

KCGS 250324Z AUTO 00000KT 10SM SCT110 13/08 A2990 RMK AO1 T01320081
Observed
Apr-25 @ 03:24 UTC
Visibility
10 SM
Flight Rules
VFR
Cloud Levels
  • Scattered at 11,000' AGL
Temperature
13°C / 55°F
Dewpoint
C / 46°F
Humidity
72%
Altimeter
29.9" Hg
Pressure
1012.52 hPa
Previous

58 mins ago

KCGS 250304Z AUTO 00000KT 10SM SCT110 14/09 A2989 RMK AO1 T01360092
Observed
Apr-25 @ 03:04 UTC
Visibility
10 SM
Flight Rules
VFR
Cloud Levels
  • Scattered at 11,000' AGL
Temperature
14°C / 57°F
Dewpoint
C / 48°F
Humidity
72%
Altimeter
29.89" Hg
Pressure
1012.22 hPa